sensor_id;sensor_type;location;lat;lon;timestamp;pressure;altitude;pressure_sealevel;temperature;humidity
49541;BME280;35432;43.566;1.398;2023-04-19T00:02:16;99773.91;;;12.72;53.52
49541;BME280;35432;43.566;1.398;2023-04-19T00:04:42;99778.34;;;12.70;53.68
49541;BME280;35432;43.566;1.398;2023-04-19T00:07:09;99778.41;;;12.67;53.31
49541;BME280;35432;43.566;1.398;2023-04-19T00:09:35;99773.22;;;12.62;53.40
49541;BME280;35432;43.566;1.398;2023-04-19T00:12:01;99771.56;;;12.56;53.42
49541;BME280;35432;43.566;1.398;2023-04-19T00:14:27;99775.09;;;12.55;53.20
49541;BME280;35432;43.566;1.398;2023-04-19T00:16:52;99775.09;;;12.55;53.22
49541;BME280;35432;43.566;1.398;2023-04-19T00:19:18;99785.66;;;12.55;53.13
49541;BME280;35432;43.566;1.398;2023-04-19T00:21:43;99781.28;;;12.56;53.21
49541;BME280;35432;43.566;1.398;2023-04-19T00:24:09;99780.44;;;12.52;53.03
49541;BME280;35432;43.566;1.398;2023-04-19T00:26:34;99774.34;;;12.48;52.92
49541;BME280;35432;43.566;1.398;2023-04-19T00:29:00;99780.59;;;12.46;53.13
49541;BME280;35432;43.566;1.398;2023-04-19T00:31:25;99782.41;;;12.42;53.32
49541;BME280;35432;43.566;1.398;2023-04-19T00:33:50;99773.59;;;12.42;53.37
49541;BME280;35432;43.566;1.398;2023-04-19T00:36:16;99768.31;;;12.42;53.03
49541;BME280;35432;43.566;1.398;2023-04-19T00:38:41;99768.31;;;12.42;53.08
49541;BME280;35432;43.566;1.398;2023-04-19T00:41:06;99768.44;;;12.35;52.86
49541;BME280;35432;43.566;1.398;2023-04-19T00:43:32;99770.31;;;12.30;52.67
49541;BME280;35432;43.566;1.398;2023-04-19T00:45:57;99776.56;;;12.26;53.05
49541;BME280;35432;43.566;1.398;2023-04-19T00:48:24;99768.69;;;12.23;53.29
49541;BME280;35432;43.566;1.398;2023-04-19T00:50:50;99773.09;;;12.23;52.96
49541;BME280;35432;43.566;1.398;2023-04-19T00:53:15;99780.22;;;12.19;53.04
49541;BME280;35432;43.566;1.398;2023-04-19T00:55:41;99772.31;;;12.16;53.57
49541;BME280;35432;43.566;1.398;2023-04-19T00:58:07;99779.41;;;12.14;53.19
49541;BME280;35432;43.566;1.398;2023-04-19T01:00:33;99774.06;;;12.17;53.44
49541;BME280;35432;43.566;1.398;2023-04-19T01:02:59;99779.31;;;12.18;53.22
49541;BME280;35432;43.566;1.398;2023-04-19T01:05:24;99779.31;;;12.20;53.48
49541;BME280;35432;43.566;1.398;2023-04-19T01:07:49;99759.94;;;12.21;53.29
49541;BME280;35432;43.566;1.398;2023-04-19T01:10:15;99765.16;;;12.24;52.89
49541;BME280;35432;43.566;1.398;2023-04-19T01:12:41;99757.19;;;12.26;53.02
49541;BME280;35432;43.566;1.398;2023-04-19T01:15:06;99756.47;;;12.19;53.07
49541;BME280;35432;43.566;1.398;2023-04-19T01:17:33;99753.75;;;12.22;52.79
49541;BME280;35432;43.566;1.398;2023-04-19T01:20:02;99752.03;;;12.19;53.22
49541;BME280;35432;43.566;1.398;2023-04-19T01:22:30;99760.91;;;12.15;53.02
49541;BME280;35432;43.566;1.398;2023-04-19T01:24:56;99753.13;;;12.09;53.39
49541;BME280;35432;43.566;1.398;2023-04-19T01:27:21;99752.28;;;12.05;53.35
49541;BME280;35432;43.566;1.398;2023-04-19T01:29:48;99741.81;;;12.01;53.61
49541;BME280;35432;43.566;1.398;2023-04-19T01:32:13;99743.56;;;12.00;53.58
49541;BME280;35432;43.566;1.398;2023-04-19T01:34:39;99742.81;;;11.92;53.53
49541;BME280;35432;43.566;1.398;2023-04-19T01:37:04;99740.16;;;11.92;53.59
49541;BME280;35432;43.566;1.398;2023-04-19T01:39:29;99735.84;;;11.88;53.65
49541;BME280;35432;43.566;1.398;2023-04-19T01:41:55;99725.59;;;11.71;54.57
49541;BME280;35432;43.566;1.398;2023-04-19T01:44:20;99716.78;;;11.73;54.46
49541;BME280;35432;43.566;1.398;2023-04-19T01:46:47;99717.72;;;11.69;54.64
49541;BME280;35432;43.566;1.398;2023-04-19T01:49:12;99715.06;;;11.69;54.85
49541;BME280;35432;43.566;1.398;2023-04-19T01:51:38;99713.31;;;11.70;55.30
49541;BME280;35432;43.566;1.398;2023-04-19T01:54:03;99712.66;;;11.58;56.01
49541;BME280;35432;43.566;1.398;2023-04-19T01:56:29;99711.69;;;11.62;55.88
49541;BME280;35432;43.566;1.398;2023-04-19T01:58:55;99711.66;;;11.64;56.26
49541;BME280;35432;43.566;1.398;2023-04-19T02:01:21;99721.25;;;11.68;55.36
49541;BME280;35432;43.566;1.398;2023-04-19T02:03:46;99731.78;;;11.70;56.12
49541;BME280;35432;43.566;1.398;2023-04-19T02:06:12;99732.66;;;11.70;56.12
49541;BME280;35432;43.566;1.398;2023-04-19T02:08:41;99735.31;;;11.70;56.01
49541;BME280;35432;43.566;1.398;2023-04-19T02:11:07;99724.69;;;11.73;55.82
49541;BME280;35432;43.566;1.398;2023-04-19T02:13:33;99720.28;;;11.74;56.36
49541;BME280;35432;43.566;1.398;2023-04-19T02:15:58;99727.34;;;11.73;56.09
49541;BME280;35432;43.566;1.398;2023-04-19T02:18:26;99717.63;;;11.74;56.34
49541;BME280;35432;43.566;1.398;2023-04-19T02:21:00;99728.31;;;11.68;56.95
49541;BME280;35432;43.566;1.398;2023-04-19T02:23:25;99729.13;;;11.71;56.66
49541;BME280;35432;43.566;1.398;2023-04-19T02:25:51;99723.81;;;11.74;56.58
49541;BME280;35432;43.566;1.398;2023-04-19T02:28:16;99715.88;;;11.74;56.57
49541;BME280;35432;43.566;1.398;2023-04-19T02:30:41;99719.31;;;11.78;56.48
49541;BME280;35432;43.566;1.398;2023-04-19T02:33:07;99715.00;;;11.75;57.04
49541;BME280;35432;43.566;1.398;2023-04-19T02:35:32;99725.53;;;11.75;56.94
49541;BME280;35432;43.566;1.398;2023-04-19T02:37:59;99729.91;;;11.76;57.23
49541;BME280;35432;43.566;1.398;2023-04-19T02:40:24;99727.28;;;11.75;57.29
49541;BME280;35432;43.566;1.398;2023-04-19T02:42:51;99729.91;;;11.76;57.19
49541;BME280;35432;43.566;1.398;2023-04-19T02:45:16;99733.41;;;11.78;57.38
49541;BME280;35432;43.566;1.398;2023-04-19T02:47:42;99739.50;;;11.81;57.31
49541;BME280;35432;43.566;1.398;2023-04-19T02:50:07;99738.63;;;11.82;56.93
49541;BME280;35432;43.566;1.398;2023-04-19T02:52:33;99741.31;;;11.78;57.45
49541;BME280;35432;43.566;1.398;2023-04-19T02:54:59;99740.53;;;11.73;58.06
49541;BME280;35432;43.566;1.398;2023-04-19T02:57:24;99739.72;;;11.68;58.32
49541;BME280;35432;43.566;1.398;2023-04-19T02:59:49;99744.09;;;11.69;58.63
49541;BME280;35432;43.566;1.398;2023-04-19T03:02:15;99745.09;;;11.63;59.24
49541;BME280;35432;43.566;1.398;2023-04-19T03:04:40;99745.09;;;11.62;58.99
49541;BME280;35432;43.566;1.398;2023-04-19T03:07:08;99759.97;;;11.66;59.02
49541;BME280;35432;43.566;1.398;2023-04-19T03:09:34;99759.13;;;11.66;59.04
49541;BME280;35432;43.566;1.398;2023-04-19T03:11:59;99764.34;;;11.67;58.96
49541;BME280;35432;43.566;1.398;2023-04-19T03:14:25;99767.81;;;11.69;58.69
49541;BME280;35432;43.566;1.398;2023-04-19T03:16:50;99763.50;;;11.67;59.45
49541;BME280;35432;43.566;1.398;2023-04-19T03:19:16;99761.69;;;11.70;58.92
49541;BME280;35432;43.566;1.398;2023-04-19T03:21:41;99763.38;;;11.73;58.54
49541;BME280;35432;43.566;1.398;2023-04-19T03:24:07;99760.72;;;11.74;59.00
49541;BME280;35432;43.566;1.398;2023-04-19T03:26:33;99752.78;;;11.76;59.07
49541;BME280;35432;43.566;1.398;2023-04-19T03:28:58;99747.50;;;11.76;58.69
49541;BME280;35432;43.566;1.398;2023-04-19T03:31:24;99737.97;;;11.67;59.71
49541;BME280;35432;43.566;1.398;2023-04-19T03:33:49;99746.78;;;11.66;60.36
49541;BME280;35432;43.566;1.398;2023-04-19T03:36:15;99743.41;;;11.59;60.30
49541;BME280;35432;43.566;1.398;2023-04-19T03:38:40;99742.63;;;11.51;60.68
49541;BME280;35432;43.566;1.398;2023-04-19T03:41:17;99744.50;;;11.44;62.14
49541;BME280;35432;43.566;1.398;2023-04-19T03:43:42;99751.50;;;11.47;61.56
49541;BME280;35432;43.566;1.398;2023-04-19T03:46:08;99748.84;;;11.47;61.46
49541;BME280;35432;43.566;1.398;2023-04-19T03:48:34;99768.38;;;11.35;64.05
49541;BME280;35432;43.566;1.398;2023-04-19T03:50:59;99766.53;;;11.42;63.63
49541;BME280;35432;43.566;1.398;2023-04-19T03:53:25;99766.47;;;11.43;62.83
49541;BME280;35432;43.566;1.398;2023-04-19T03:55:50;99766.47;;;11.46;62.17
49541;BME280;35432;43.566;1.398;2023-04-19T03:58:16;99776.97;;;11.48;62.11
49541;BME280;35432;43.566;1.398;2023-04-19T04:00:41;99777.75;;;11.53;62.17
49541;BME280;35432;43.566;1.398;2023-04-19T04:03:07;99772.47;;;11.53;62.42
49541;BME280;35432;43.566;1.398;2023-04-19T04:05:33;99768.19;;;11.47;62.70
49541;BME280;35432;43.566;1.398;2023-04-19T04:07:59;99773.50;;;11.44;62.80
49541;BME280;35432;43.566;1.398;2023-04-19T04:10:25;99770.00;;;11.44;63.02
49541;BME280;35432;43.566;1.398;2023-04-19T04:12:50;99767.47;;;11.38;62.94
49541;BME280;35432;43.566;1.398;2023-04-19T04:15:16;99764.00;;;11.34;63.95
49541;BME280;35432;43.566;1.398;2023-04-19T04:17:41;99766.78;;;11.25;63.87
49541;BME280;35432;43.566;1.398;2023-04-19T04:20:07;99770.31;;;11.24;64.23
49541;BME280;35432;43.566;1.398;2023-04-19T04:22:33;99766.84;;;11.18;64.58
49541;BME280;35432;43.566;1.398;2023-04-19T04:24:58;99766.84;;;11.18;64.00
49541;BME280;35432;43.566;1.398;2023-04-19T04:27:25;99765.09;;;11.19;64.47
49541;BME280;35432;43.566;1.398;2023-04-19T04:29:50;99765.06;;;11.20;63.75
49541;BME280;35432;43.566;1.398;2023-04-19T04:32:15;99773.81;;;11.26;64.09
49541;BME280;35432;43.566;1.398;2023-04-19T04:34:42;99771.97;;;11.31;63.49
49541;BME280;35432;43.566;1.398;2023-04-19T04:37:08;99775.50;;;11.30;64.19
49541;BME280;35432;43.566;1.398;2023-04-19T04:39:34;99776.34;;;11.32;63.50
49541;BME280;35432;43.566;1.398;2023-04-19T04:42:04;99779.81;;;11.32;63.43
49541;BME280;35432;43.566;1.398;2023-04-19T04:44:33;99771.91;;;11.34;63.37
49541;BME280;35432;43.566;1.398;2023-04-19T04:46:59;99778.06;;;11.34;63.68
49541;BME280;35432;43.566;1.398;2023-04-19T04:49:25;99774.56;;;11.32;63.41
49541;BME280;35432;43.566;1.398;2023-04-19T04:51:50;99774.56;;;11.32;63.03
49541;BME280;35432;43.566;1.398;2023-04-19T04:54:16;99784.25;;;11.32;63.45
49541;BME280;35432;43.566;1.398;2023-04-19T04:56:41;99783.44;;;11.27;63.69
49541;BME280;35432;43.566;1.398;2023-04-19T04:59:07;99780.00;;;11.22;64.00
49541;BME280;35432;43.566;1.398;2023-04-19T05:01:32;99778.25;;;11.20;64.00
49541;BME280;35432;43.566;1.398;2023-04-19T05:03:58;99773.91;;;11.16;63.99
49541;BME280;35432;43.566;1.398;2023-04-19T05:06:23;99779.19;;;11.16;64.33
49541;BME280;35432;43.566;1.398;2023-04-19T05:08:49;99777.53;;;11.09;64.77
49541;BME280;35432;43.566;1.398;2023-04-19T05:11:14;99780.28;;;11.03;65.48
49541;BME280;35432;43.566;1.398;2023-04-19T05:13:40;99786.38;;;11.05;65.21
49541;BME280;35432;43.566;1.398;2023-04-19T05:16:06;99782.91;;;11.03;65.35
49541;BME280;35432;43.566;1.398;2023-04-19T05:18:31;99782.91;;;11.03;65.83
49541;BME280;35432;43.566;1.398;2023-04-19T05:20:56;99791.66;;;11.03;65.39
49541;BME280;35432;43.566;1.398;2023-04-19T05:23:22;99792.50;;;11.05;65.65
49541;BME280;35432;43.566;1.398;2023-04-19T05:25:47;99795.09;;;11.10;65.67
49541;BME280;35432;43.566;1.398;2023-04-19T05:28:13;99802.06;;;11.14;65.24
49541;BME280;35432;43.566;1.398;2023-04-19T05:30:38;99793.25;;;11.15;65.59
49541;BME280;35432;43.566;1.398;2023-04-19T05:33:04;99796.69;;;11.24;65.21
49541;BME280;35432;43.566;1.398;2023-04-19T05:35:30;99804.44;;;11.31;65.50
49541;BME280;35432;43.566;1.398;2023-04-19T05:37:55;99801.75;;;11.36;65.40
49541;BME280;35432;43.566;1.398;2023-04-19T05:40:21;99808.81;;;11.34;65.36
49541;BME280;35432;43.566;1.398;2023-04-19T05:42:47;99808.72;;;11.40;65.20
49541;BME280;35432;43.566;1.398;2023-04-19T05:45:15;99810.47;;;11.41;66.40
49541;BME280;35432;43.566;1.398;2023-04-19T05:47:40;99813.03;;;11.46;65.49
49541;BME280;35432;43.566;1.398;2023-04-19T05:50:06;99813.66;;;11.62;65.36
49541;BME280;35432;43.566;1.398;2023-04-19T05:52:32;99803.69;;;11.81;64.49
49541;BME280;35432;43.566;1.398;2023-04-19T05:54:58;99801.63;;;12.00;64.48
49541;BME280;35432;43.566;1.398;2023-04-19T05:57:23;99800.75;;;12.01;64.93
49541;BME280;35432;43.566;1.398;2023-04-19T05:59:49;99797.72;;;12.23;64.30
49541;BME280;35432;43.566;1.398;2023-04-19T06:02:14;99803.66;;;12.34;63.64
49541;BME280;35432;43.566;1.398;2023-04-19T06:04:40;99799.78;;;12.54;63.35
49541;BME280;35432;43.566;1.398;2023-04-19T06:07:06;99799.53;;;12.67;62.96
49541;BME280;35432;43.566;1.398;2023-04-19T06:09:31;99807.34;;;12.71;62.94
49541;BME280;35432;43.566;1.398;2023-04-19T06:11:57;99806.16;;;12.88;62.98
49541;BME280;35432;43.566;1.398;2023-04-19T06:14:22;99803.22;;;13.00;62.71
49541;BME280;35432;43.566;1.398;2023-04-19T06:16:48;99811.94;;;13.05;62.59
49541;BME280;35432;43.566;1.398;2023-04-19T06:19:13;99810.81;;;13.17;62.49
49541;BME280;35432;43.566;1.398;2023-04-19T06:21:39;99804.38;;;13.29;62.33
49541;BME280;35432;43.566;1.398;2023-04-19T06:24:05;99806.81;;;13.37;62.09
49541;BME280;35432;43.566;1.398;2023-04-19T06:26:31;99811.94;;;13.46;62.06
49541;BME280;35432;43.566;1.398;2023-04-19T06:28:56;99806.34;;;13.59;61.86
49541;BME280;35432;43.566;1.398;2023-04-19T06:31:22;99796.41;;;13.69;61.57
49541;BME280;35432;43.566;1.398;2023-04-19T06:33:48;99800.69;;;13.76;61.53
49541;BME280;35432;43.566;1.398;2023-04-19T06:36:13;99791.63;;;13.85;61.28
49541;BME280;35432;43.566;1.398;2023-04-19T06:38:38;99787.91;;;13.92;61.41
49541;BME280;35432;43.566;1.398;2023-04-19T06:41:06;99803.81;;;13.92;61.62
49541;BME280;35432;43.566;1.398;2023-04-19T06:43:31;99797.34;;;14.02;61.22
49541;BME280;35432;43.566;1.398;2023-04-19T06:46:01;99806.00;;;14.09;61.03
49541;BME280;35432;43.566;1.398;2023-04-19T06:48:26;99803.00;;;14.23;60.86
49541;BME280;35432;43.566;1.398;2023-04-19T06:50:52;99810.03;;;14.24;61.21
49541;BME280;35432;43.566;1.398;2023-04-19T06:53:18;99805.47;;;14.29;60.73
49541;BME280;35432;43.566;1.398;2023-04-19T06:55:44;99808.84;;;14.36;60.97
49541;BME280;35432;43.566;1.398;2023-04-19T06:58:09;99812.13;;;14.44;60.32
49541;BME280;35432;43.566;1.398;2023-04-19T07:00:35;99808.25;;;14.58;60.17
49541;BME280;35432;43.566;1.398;2023-04-19T07:03:01;99807.88;;;14.72;59.60
49541;BME280;35432;43.566;1.398;2023-04-19T07:05:27;99815.56;;;14.81;59.61
49541;BME280;35432;43.566;1.398;2023-04-19T07:07:53;99803.38;;;14.75;59.45
49541;BME280;35432;43.566;1.398;2023-04-19T07:10:18;99811.09;;;14.83;59.38
49541;BME280;35432;43.566;1.398;2023-04-19T07:12:43;99810.84;;;14.91;58.83
49541;BME280;35432;43.566;1.398;2023-04-19T07:15:09;99805.84;;;14.82;58.98
49541;BME280;35432;43.566;1.398;2023-04-19T07:17:35;99803.91;;;14.87;58.87
49541;BME280;35432;43.566;1.398;2023-04-19T07:20:01;99803.72;;;14.93;59.03
49541;BME280;35432;43.566;1.398;2023-04-19T07:22:28;99805.22;;;15.03;58.68
49541;BME280;35432;43.566;1.398;2023-04-19T07:24:53;99794.91;;;15.23;58.19
49541;BME280;35432;43.566;1.398;2023-04-19T07:27:19;99796.44;;;15.30;57.93
49541;BME280;35432;43.566;1.398;2023-04-19T07:29:44;99793.41;;;15.42;57.71
49541;BME280;35432;43.566;1.398;2023-04-19T07:32:11;99793.06;;;15.53;57.39
49541;BME280;35432;43.566;1.398;2023-04-19T07:34:38;99788.22;;;15.66;56.92
49541;BME280;35432;43.566;1.398;2023-04-19T07:37:05;99781.50;;;15.83;56.73
49541;BME280;35432;43.566;1.398;2023-04-19T07:39:31;99783.75;;;15.95;56.60
49541;BME280;35432;43.566;1.398;2023-04-19T07:41:56;99785.09;;;16.09;56.03
49541;BME280;35432;43.566;1.398;2023-04-19T07:44:22;99792.72;;;16.18;56.12
49541;BME280;35432;43.566;1.398;2023-04-19T07:46:47;99781.69;;;16.30;55.55
49541;BME280;35432;43.566;1.398;2023-04-19T07:49:13;99786.25;;;16.25;55.41
49541;BME280;35432;43.566;1.398;2023-04-19T07:51:38;99784.00;;;16.40;55.02
49541;BME280;35432;43.566;1.398;2023-04-19T07:54:03;99789.97;;;16.46;54.95
49541;BME280;35432;43.566;1.398;2023-04-19T07:56:29;99781.25;;;16.67;54.52
49541;BME280;35432;43.566;1.398;2023-04-19T07:58:54;99779.69;;;16.85;54.39
49541;BME280;35432;43.566;1.398;2023-04-19T08:01:19;99780.88;;;17.01;53.81
49541;BME280;35432;43.566;1.398;2023-04-19T08:03:45;99775.00;;;17.15;53.13
49541;BME280;35432;43.566;1.398;2023-04-19T08:06:11;99779.09;;;17.24;53.08
49541;BME280;35432;43.566;1.398;2023-04-19T08:08:37;99782.72;;;17.21;52.35
49541;BME280;35432;43.566;1.398;2023-04-19T08:11:03;99783.50;;;17.25;52.14
49541;BME280;35432;43.566;1.398;2023-04-19T08:13:29;99768.16;;;17.32;52.28
49541;BME280;35432;43.566;1.398;2023-04-19T08:15:55;99765.09;;;17.41;52.30
49541;BME280;35432;43.566;1.398;2023-04-19T08:18:20;99758.50;;;17.52;52.37
49541;BME280;35432;43.566;1.398;2023-04-19T08:20:46;99744.75;;;17.62;51.55
49541;BME280;35432;43.566;1.398;2023-04-19T08:23:12;99751.97;;;17.59;51.10
49541;BME280;35432;43.566;1.398;2023-04-19T08:25:38;99747.00;;;17.72;50.95
49541;BME280;35432;43.566;1.398;2023-04-19T08:28:04;99761.56;;;17.85;51.19
49541;BME280;35432;43.566;1.398;2023-04-19T08:30:29;99770.25;;;18.11;50.81
49541;BME280;35432;43.566;1.398;2023-04-19T08:32:55;99769.38;;;18.31;50.50
49541;BME280;35432;43.566;1.398;2023-04-19T08:35:21;99759.06;;;18.43;50.25
49541;BME280;35432;43.566;1.398;2023-04-19T08:37:47;99764.31;;;18.25;49.16
49541;BME280;35432;43.566;1.398;2023-04-19T08:40:14;99765.75;;;18.32;49.50
49541;BME280;35432;43.566;1.398;2023-04-19T08:42:41;99756.78;;;18.14;49.86
49541;BME280;35432;43.566;1.398;2023-04-19T08:45:07;99757.81;;;18.31;49.68
49541;BME280;35432;43.566;1.398;2023-04-19T08:47:33;99765.09;;;18.27;49.49
49541;BME280;35432;43.566;1.398;2023-04-19T08:50:00;99758.06;;;18.26;49.57
49541;BME280;35432;43.566;1.398;2023-04-19T08:52:26;99763.75;;;18.38;49.74
49541;BME280;35432;43.566;1.398;2023-04-19T08:54:53;99756.22;;;18.47;49.22
49541;BME280;35432;43.566;1.398;2023-04-19T08:57:19;99755.28;;;18.68;49.08
49541;BME280;35432;43.566;1.398;2023-04-19T08:59:45;99752.63;;;18.68;48.57
49541;BME280;35432;43.566;1.398;2023-04-19T09:02:13;99746.50;;;18.65;48.83
49541;BME280;35432;43.566;1.398;2023-04-19T09:04:39;99746.25;;;18.72;48.20
49541;BME280;35432;43.566;1.398;2023-04-19T09:07:04;99747.38;;;18.85;48.35
49541;BME280;35432;43.566;1.398;2023-04-19T09:09:32;99739.47;;;18.84;48.26
49541;BME280;35432;43.566;1.398;2023-04-19T09:11:58;99747.91;;;18.93;48.43
49541;BME280;35432;43.566;1.398;2023-04-19T09:14:25;99749.28;;;19.02;48.22
49541;BME280;35432;43.566;1.398;2023-04-19T09:16:51;99745.50;;;19.26;48.05
49541;BME280;35432;43.566;1.398;2023-04-19T09:19:17;99746.31;;;19.28;47.45
49541;BME280;35432;43.566;1.398;2023-04-19T09:21:42;99739.09;;;19.30;47.40
49541;BME280;35432;43.566;1.398;2023-04-19T09:24:08;99733.38;;;19.38;47.21
49541;BME280;35432;43.566;1.398;2023-04-19T09:26:33;99742.25;;;19.56;47.40
49541;BME280;35432;43.566;1.398;2023-04-19T09:29:06;99737.72;;;19.75;47.20
49541;BME280;35432;43.566;1.398;2023-04-19T09:31:36;99744.91;;;19.92;46.60
49541;BME280;35432;43.566;1.398;2023-04-19T09:34:17;99733.47;;;19.89;46.16
49541;BME280;35432;43.566;1.398;2023-04-19T09:36:43;99741.91;;;20.16;46.29
49541;BME280;35432;43.566;1.398;2023-04-19T09:39:09;99734.72;;;20.34;46.27
49541;BME280;35432;43.566;1.398;2023-04-19T09:41:49;99735.25;;;20.41;45.49
49541;BME280;35432;43.566;1.398;2023-04-19T09:44:15;99722.69;;;20.59;45.77
49541;BME280;35432;43.566;1.398;2023-04-19T09:46:41;99724.88;;;20.69;45.20
49541;BME280;35432;43.566;1.398;2023-04-19T09:51:46;99722.34;;;20.99;45.00
49541;BME280;35432;43.566;1.398;2023-04-19T09:54:13;99719.28;;;21.21;44.67
49541;BME280;35432;43.566;1.398;2023-04-19T09:56:39;99718.91;;;21.44;43.59
49541;BME280;35432;43.566;1.398;2023-04-19T09:59:06;99717.88;;;21.46;43.86
49541;BME280;35432;43.566;1.398;2023-04-19T10:01:44;99715.75;;;21.37;43.36
49541;BME280;35432;43.566;1.398;2023-04-19T10:04:12;99706.88;;;21.67;43.54
49541;BME280;35432;43.566;1.398;2023-04-19T10:06:39;99709.97;;;21.59;43.13
49541;BME280;35432;43.566;1.398;2023-04-19T10:09:05;99711.78;;;21.75;42.71
49541;BME280;35432;43.566;1.398;2023-04-19T10:11:35;99706.78;;;21.69;42.47
49541;BME280;35432;43.566;1.398;2023-04-19T10:14:05;99706.44;;;21.75;42.36
49541;BME280;35432;43.566;1.398;2023-04-19T10:16:31;99710.25;;;21.71;41.99
49541;BME280;35432;43.566;1.398;2023-04-19T10:18:57;99710.25;;;21.71;42.30
49541;BME280;35432;43.566;1.398;2023-04-19T10:21:23;99703.25;;;21.68;41.90
49541;BME280;35432;43.566;1.398;2023-04-19T10:23:51;99698.84;;;21.67;42.54
49541;BME280;35432;43.566;1.398;2023-04-19T10:26:17;99704.97;;;21.69;42.63
49541;BME280;35432;43.566;1.398;2023-04-19T10:28:42;99702.34;;;21.84;42.54
49541;BME280;35432;43.566;1.398;2023-04-19T10:31:11;99701.97;;;21.90;42.35
49541;BME280;35432;43.566;1.398;2023-04-19T10:33:40;99693.19;;;22.17;41.65
49541;BME280;35432;43.566;1.398;2023-04-19T10:36:10;99693.34;;;22.28;41.39
49541;BME280;35432;43.566;1.398;2023-04-19T10:41:04;99681.13;;;22.53;41.70
49541;BME280;35432;43.566;1.398;2023-04-19T10:43:36;99683.63;;;22.56;40.65
49541;BME280;35432;43.566;1.398;2023-04-19T10:46:13;99679.03;;;22.58;40.16
49541;BME280;35432;43.566;1.398;2023-04-19T10:48:59;99677.06;;;22.75;40.35
49541;BME280;35432;43.566;1.398;2023-04-19T10:51:27;99678.97;;;22.73;39.28
49541;BME280;35432;43.566;1.398;2023-04-19T10:54:12;99676.69;;;22.81;38.97
49541;BME280;35432;43.566;1.398;2023-04-19T10:56:58;99679.16;;;22.84;38.88
49541;BME280;35432;43.566;1.398;2023-04-19T10:59:25;99678.16;;;23.00;38.62
49541;BME280;35432;43.566;1.398;2023-04-19T11:01:56;99671.97;;;23.12;38.31
49541;BME280;35432;43.566;1.398;2023-04-19T11:04:23;99663.81;;;23.14;37.24
49541;BME280;35432;43.566;1.398;2023-04-19T11:07:08;99659.81;;;23.06;38.12
49541;BME280;35432;43.566;1.398;2023-04-19T11:09:39;99653.66;;;23.19;37.87
49541;BME280;35432;43.566;1.398;2023-04-19T11:12:15;99652.97;;;23.30;36.82
49541;BME280;35432;43.566;1.398;2023-04-19T11:14:57;99647.50;;;23.44;36.61
49541;BME280;35432;43.566;1.398;2023-04-19T11:19:59;99640.56;;;23.80;36.69
49541;BME280;35432;43.566;1.398;2023-04-19T11:24:51;99631.66;;;24.06;36.50
49541;BME280;35432;43.566;1.398;2023-04-19T11:27:16;99632.81;;;24.15;36.24
49541;BME280;35432;43.566;1.398;2023-04-19T11:29:42;99624.22;;;24.22;36.14
49541;BME280;35432;43.566;1.398;2023-04-19T11:32:07;99617.53;;;24.28;35.99
49541;BME280;35432;43.566;1.398;2023-04-19T11:34:37;99616.47;;;24.18;35.80
49541;BME280;35432;43.566;1.398;2023-04-19T11:37:03;99606.31;;;24.34;35.72
49541;BME280;35432;43.566;1.398;2023-04-19T11:39:28;99605.97;;;24.52;35.45
49541;BME280;35432;43.566;1.398;2023-04-19T11:41:54;99598.88;;;24.51;35.38
49541;BME280;35432;43.566;1.398;2023-04-19T11:44:20;99597.88;;;24.52;35.03
49541;BME280;35432;43.566;1.398;2023-04-19T11:47:02;99597.47;;;24.45;34.78
49541;BME280;35432;43.566;1.398;2023-04-19T11:49:31;99589.41;;;24.70;34.66
49541;BME280;35432;43.566;1.398;2023-04-19T11:52:01;99591.78;;;24.74;34.41
49541;BME280;35432;43.566;1.398;2023-04-19T11:54:27;99585.09;;;24.80;33.76
49541;BME280;35432;43.566;1.398;2023-04-19T11:57:10;99573.69;;;24.76;33.29
49541;BME280;35432;43.566;1.398;2023-04-19T11:59:36;99582.69;;;24.88;32.78
49541;BME280;35432;43.566;1.398;2023-04-19T12:04:29;99578.59;;;25.07;32.07
49541;BME280;35432;43.566;1.398;2023-04-19T12:06:59;99583.50;;;25.02;30.40
49541;BME280;35432;43.566;1.398;2023-04-19T12:09:25;99586.69;;;25.07;30.35
49541;BME280;35432;43.566;1.398;2023-04-19T12:11:51;99581.06;;;25.10;30.61
49541;BME280;35432;43.566;1.398;2023-04-19T12:14:18;99580.00;;;25.24;30.96
49541;BME280;35432;43.566;1.398;2023-04-19T12:19:34;99569.78;;;25.41;29.81
49541;BME280;35432;43.566;1.398;2023-04-19T12:22:16;99565.03;;;25.56;30.15
49541;BME280;35432;43.566;1.398;2023-04-19T12:24:43;99562.97;;;25.71;30.44
49541;BME280;35432;43.566;1.398;2023-04-19T12:27:10;99569.47;;;25.91;30.19
49541;BME280;35432;43.566;1.398;2023-04-19T12:29:36;99565.56;;;25.84;29.92
49541;BME280;35432;43.566;1.398;2023-04-19T12:32:02;99561.78;;;25.86;29.99
49541;BME280;35432;43.566;1.398;2023-04-19T12:34:28;99559.19;;;25.85;30.39
49541;BME280;35432;43.566;1.398;2023-04-19T12:36:53;99555.66;;;25.84;30.21
49541;BME280;35432;43.566;1.398;2023-04-19T12:39:19;99553.53;;;25.88;29.84
49541;BME280;35432;43.566;1.398;2023-04-19T12:41:44;99558.56;;;26.04;29.12
49541;BME280;35432;43.566;1.398;2023-04-19T12:44:12;99548.53;;;26.06;28.26
49541;BME280;35432;43.566;1.398;2023-04-19T12:46:37;99551.13;;;26.19;28.37
49541;BME280;35432;43.566;1.398;2023-04-19T12:49:03;99555.53;;;26.20;27.33
49541;BME280;35432;43.566;1.398;2023-04-19T12:51:29;99549.25;;;26.31;26.91
49541;BME280;35432;43.566;1.398;2023-04-19T12:53:54;99552.53;;;26.46;26.42
49541;BME280;35432;43.566;1.398;2023-04-19T12:56:20;99543.97;;;26.41;25.27
49541;BME280;35432;43.566;1.398;2023-04-19T12:58:45;99535.88;;;26.41;25.40
49541;BME280;35432;43.566;1.398;2023-04-19T13:01:10;99532.41;;;26.50;26.15
49541;BME280;35432;43.566;1.398;2023-04-19T13:03:36;99530.16;;;26.55;25.54
49541;BME280;35432;43.566;1.398;2023-04-19T13:06:05;99519.72;;;26.62;25.83
49541;BME280;35432;43.566;1.398;2023-04-19T13:08:30;99527.75;;;26.73;26.00
49541;BME280;35432;43.566;1.398;2023-04-19T13:10:56;99521.22;;;26.87;25.58
49541;BME280;35432;43.566;1.398;2023-04-19T13:13:24;99519.66;;;26.85;24.56